Time;durP1;ratioP1;P1;durP2;ratioP2;P2;SDS_P1;SDS_P2;PMS_P1;PMS_P2;Temp;Humidity;BMP_temperature;BMP_pressure;BME280_temperature;BME280_humidity;BME280_pressure;Samples;Min_cycle;Max_cycle;Signal;HPM_P1;HPM_P2
2021/01/06 00:00:09;;;;;;;2.67;2.47;;;5.80;99.90;;;;;;6155533;23;20012;-80
2021/01/06 00:02:38;;;;;;;2.53;2.33;;;5.80;99.90;;;;;;6153971;23;20017;-80
2021/01/06 00:05:07;;;;;;;3.72;2.55;;;5.80;99.90;;;;;;6155357;23;20326;-81
2021/01/06 00:07:32;;;;;;;8.35;6.45;;;5.80;99.90;;;;;;6153452;23;20496;-80
2021/01/06 00:09:58;;;;;;;8.05;5.22;;;5.80;99.90;;;;;;6153592;23;20002;-80
2021/01/06 00:12:23;;;;;;;5.15;4.25;;;5.80;99.90;;;;;;6153587;23;20002;-80
2021/01/06 00:14:49;;;;;;;4.65;3.85;;;5.70;99.90;;;;;;6155432;23;20002;-80
2021/01/06 00:17:15;;;;;;;3.15;2.40;;;5.70;99.90;;;;;;6153613;23;20342;-80
2021/01/06 00:19:40;;;;;;;2.22;2.10;;;5.70;99.90;;;;;;6154872;23;20008;-80
2021/01/06 00:22:06;;;;;;;3.00;2.30;;;5.70;99.90;;;;;;6155171;23;20008;-79
2021/01/06 00:24:31;;;;;;;3.58;2.28;;;5.70;99.90;;;;;;6153737;23;20006;-80
2021/01/06 00:26:57;;;;;;;3.90;3.42;;;5.70;99.90;;;;;;6153507;23;20088;-80
2021/01/06 00:29:23;;;;;;;3.13;2.80;;;5.70;99.90;;;;;;6153789;23;20009;-80
2021/01/06 00:31:48;;;;;;;3.47;2.90;;;5.70;99.90;;;;;;6154964;23;20033;-80
2021/01/06 00:34:14;;;;;;;3.33;2.40;;;5.70;99.90;;;;;;6153469;23;20036;-80
2021/01/06 00:36:40;;;;;;;2.22;2.13;;;5.70;99.90;;;;;;6154680;23;20017;-80
2021/01/06 00:39:06;;;;;;;1.33;1.33;;;5.70;99.90;;;;;;6153035;23;20016;-80
2021/01/06 00:41:34;;;;;;;1.27;1.17;;;5.70;99.90;;;;;;6153392;23;20010;-80
2021/01/06 00:44:01;;;;;;;1.17;1.15;;;5.60;99.90;;;;;;6153227;23;20385;-80
2021/01/06 00:46:38;;;;;;;1.25;1.15;;;5.60;99.90;;;;;;6152987;23;20058;-80
2021/01/06 00:49:05;;;;;;;1.05;1.05;;;5.60;99.90;;;;;;6154728;23;20029;-80
2021/01/06 00:51:31;;;;;;;1.42;1.33;;;5.60;99.90;;;;;;6154932;23;19997;-80
2021/01/06 00:53:57;;;;;;;1.42;1.33;;;5.60;99.90;;;;;;6154465;23;20001;-80
2021/01/06 00:56:32;;;;;;;1.48;1.33;;;5.70;99.90;;;;;;6186283;23;20005;-80
2021/01/06 00:58:58;;;;;;;1.20;1.17;;;5.70;99.90;;;;;;6160466;23;20027;-81
2021/01/06 01:01:25;;;;;;;1.10;1.00;;;5.70;99.90;;;;;;6186350;23;20393;-80
2021/01/06 01:03:50;;;;;;;1.15;1.13;;;5.60;99.90;;;;;;6186669;23;20001;-80
2021/01/06 01:06:42;;;;;;;2.15;1.58;;;5.60;99.90;;;;;;6186559;23;20008;-80
2021/01/06 01:09:08;;;;;;;1.42;1.17;;;5.60;99.90;;;;;;6181098;23;20445;-80
2021/01/06 01:11:38;;;;;;;1.23;1.20;;;5.60;99.90;;;;;;6186712;23;20001;-81
2021/01/06 01:14:04;;;;;;;1.42;1.33;;;5.60;99.90;;;;;;6160359;23;20330;-81
2021/01/06 01:16:30;;;;;;;4.07;1.90;;;5.60;99.90;;;;;;6186547;23;20008;-81
2021/01/06 01:18:55;;;;;;;2.17;2.08;;;5.60;99.90;;;;;;6186478;23;20455;-82
2021/01/06 01:21:22;;;;;;;1.77;1.67;;;5.50;99.90;;;;;;6160215;23;20005;-81
2021/01/06 01:23:48;;;;;;;2.35;2.00;;;5.60;99.90;;;;;;6186682;23;20052;-81
2021/01/06 01:26:13;;;;;;;5.22;3.72;;;5.60;99.90;;;;;;6186176;23;20009;-81
2021/01/06 01:28:39;;;;;;;8.18;4.47;;;5.60;99.90;;;;;;6186507;23;20006;-81
2021/01/06 01:31:05;;;;;;;8.80;4.68;;;5.60;99.90;;;;;;6186361;23;20366;-81
2021/01/06 01:33:31;;;;;;;8.32;4.20;;;5.70;99.90;;;;;;6160313;23;20032;-82
2021/01/06 01:36:00;;;;;;;9.02;4.10;;;5.70;99.90;;;;;;6159981;23;20005;-81
2021/01/06 01:38:29;;;;;;;2.90;1.92;;;5.70;99.90;;;;;;6159772;23;20103;-81
2021/01/06 01:41:02;;;;;;;2.65;2.05;;;5.70;99.90;;;;;;6159719;23;20087;-81
2021/01/06 01:43:32;;;;;;;3.13;2.22;;;5.70;99.90;;;;;;6186191;23;20080;-81
2021/01/06 01:45:57;;;;;;;1.85;1.70;;;5.70;99.90;;;;;;6159628;23;20005;-81
2021/01/06 01:48:44;;;;;;;3.53;1.70;;;5.60;99.90;;;;;;6159764;23;20016;-81
2021/01/06 01:51:13;;;;;;;1.45;1.35;;;5.60;99.90;;;;;;6186360;23;20055;-82
2021/01/06 01:53:50;;;;;;;1.30;1.20;;;5.60;99.90;;;;;;6186020;23;20052;-82
2021/01/06 01:56:19;;;;;;;1.33;1.23;;;5.60;99.90;;;;;;6159660;23;20027;-82
2021/01/06 01:58:49;;;;;;;1.33;1.20;;;5.60;99.90;;;;;;6159752;23;20009;-81
2021/01/06 02:01:15;;;;;;;2.42;2.22;;;5.60;99.90;;;;;;6185912;23;20127;-82
2021/01/06 02:03:56;;;;;;;7.95;4.05;;;5.60;99.90;;;;;;6185498;23;20437;-82
2021/01/06 02:06:30;;;;;;;3.33;2.55;;;5.60;99.90;;;;;;6158990;23;20005;-81
2021/01/06 02:09:02;;;;;;;1.30;1.30;;;5.60;99.90;;;;;;6159132;23;20060;-81
2021/01/06 02:11:46;;;;;;;1.40;1.30;;;5.60;99.90;;;;;;6185351;23;20445;-81
2021/01/06 02:14:24;;;;;;;1.00;1.00;;;5.50;99.90;;;;;;6159030;23;20024;-81
2021/01/06 02:17:13;;;;;;;1.17;1.10;;;5.40;99.90;;;;;;6158962;23;20456;-81
2021/01/06 02:19:41;;;;;;;1.10;1.10;;;5.30;99.90;;;;;;6158760;23;20456;-81
2021/01/06 02:22:10;;;;;;;1.17;1.17;;;5.20;99.90;;;;;;6159480;23;20005;-81
2021/01/06 02:24:36;;;;;;;1.48;1.30;;;5.30;99.90;;;;;;6186064;23;20004;-81
2021/01/06 02:27:04;;;;;;;1.60;1.50;;;5.20;99.90;;;;;;6159606;23;20009;-81
2021/01/06 02:29:31;;;;;;;1.10;1.10;;;5.20;99.90;;;;;;6159472;23;20032;-81
2021/01/06 02:31:57;;;;;;;0.90;0.90;;;5.30;99.90;;;;;;6159588;23;20056;-81
2021/01/06 02:34:23;;;;;;;1.73;0.95;;;5.30;99.90;;;;;;6186053;23;19997;-81
2021/01/06 02:36:49;;;;;;;0.93;0.93;;;5.20;99.90;;;;;;6185890;23;20337;-81
2021/01/06 02:39:16;;;;;;;1.10;1.10;;;5.30;99.90;;;;;;6159096;23;20012;-81
2021/01/06 02:41:42;;;;;;;1.00;1.00;;;5.30;99.90;;;;;;6159789;23;20337;-81
2021/01/06 02:44:09;;;;;;;2.42;0.93;;;5.30;99.90;;;;;;6159559;23;20005;-81
2021/01/06 02:46:36;;;;;;;1.13;1.13;;;5.30;99.90;;;;;;6159395;23;20009;-81
2021/01/06 02:49:03;;;;;;;1.10;1.10;;;5.30;99.90;;;;;;6185544;23;20065;-81
2021/01/06 02:51:51;;;;;;;1.30;1.20;;;5.20;99.90;;;;;;6185895;23;20032;-81
2021/01/06 02:54:22;;;;;;;1.35;1.25;;;5.20;99.90;;;;;;6159029;23;20341;-82
2021/01/06 02:56:51;;;;;;;1.30;1.30;;;5.30;99.90;;;;;;6159415;23;20496;-82
2021/01/06 02:59:21;;;;;;;1.00;1.00;;;5.20;99.90;;;;;;6185734;23;20429;-82
2021/01/06 03:01:48;;;;;;;1.40;1.30;;;5.30;99.90;;;;;;6159420;23;20456;-82
2021/01/06 03:04:17;;;;;;;1.10;1.10;;;5.20;99.90;;;;;;6185831;23;20083;-82
2021/01/06 03:07:03;;;;;;;2.33;1.05;;;5.30;99.90;;;;;;6159050;23;20059;-82
2021/01/06 03:09:35;;;;;;;1.25;1.08;;;5.30;99.90;;;;;;6159117;23;20039;-82
2021/01/06 03:12:07;;;;;;;0.90;0.90;;;5.40;99.90;;;;;;6159204;23;20001;-82
2021/01/06 03:14:34;;;;;;;2.70;1.90;;;5.40;99.90;;;;;;6185741;23;20053;-82
2021/01/06 03:17:02;;;;;;;3.10;2.38;;;5.50;99.90;;;;;;6158862;23;20005;-82
2021/01/06 03:19:31;;;;;;;5.97;3.60;;;5.40;99.90;;;;;;6159229;23;20012;-82
2021/01/06 03:21:59;;;;;;;4.32;2.90;;;5.50;99.90;;;;;;6185123;23;20062;-82
2021/01/06 03:24:30;;;;;;;1.30;1.20;;;5.50;99.90;;;;;;6159318;23;20077;-82
2021/01/06 03:26:58;;;;;;;1.38;1.27;;;5.50;99.90;;;;;;6158668;23;20012;-82
2021/01/06 03:29:28;;;;;;;5.78;1.10;;;5.50;99.90;;;;;;6185416;23;20333;-82
2021/01/06 03:31:56;;;;;;;1.08;1.08;;;5.50;99.90;;;;;;6185521;23;20001;-81
2021/01/06 03:34:24;;;;;;;1.45;1.15;;;5.50;99.90;;;;;;6159261;23;20337;-82
2021/01/06 03:36:59;;;;;;;1.30;1.20;;;5.50;99.90;;;;;;6185205;23;20084;-82
2021/01/06 03:39:29;;;;;;;0.93;0.93;;;5.40;99.90;;;;;;6185285;23;20005;-81
2021/01/06 03:41:55;;;;;;;0.90;0.90;;;5.40;99.90;;;;;;6185386;23;20005;-82
2021/01/06 03:44:23;;;;;;;1.42;1.33;;;5.40;99.90;;;;;;6159131;23;19997;-82
2021/01/06 03:47:26;;;;;;;1.40;1.30;;;5.40;99.90;;;;;;6185249;23;20001;-81
2021/01/06 03:49:57;;;;;;;0.90;0.90;;;5.40;99.90;;;;;;6159012;23;20333;-81
2021/01/06 03:52:58;;;;;;;1.30;1.20;;;5.40;99.90;;;;;;6159109;23;20063;-81
2021/01/06 03:55:30;;;;;;;1.10;1.10;;;5.40;99.90;;;;;;6158613;23;20021;-80
2021/01/06 03:57:57;;;;;;;1.98;1.10;;;5.40;99.90;;;;;;6158745;23;20044;-81
2021/01/06 04:00:41;;;;;;;0.90;0.90;;;5.40;99.90;;;;;;6185295;23;20079;-81
2021/01/06 04:03:27;;;;;;;1.27;1.17;;;5.50;99.90;;;;;;6158805;23;20071;-80
2021/01/06 04:05:55;;;;;;;2.10;1.05;;;5.50;99.90;;;;;;6184974;23;20001;-80
2021/01/06 04:08:29;;;;;;;1.00;1.00;;;5.50;99.90;;;;;;6158885;23;20337;-80
2021/01/06 04:10:58;;;;;;;1.10;1.10;;;5.50;99.90;;;;;;6185368;23;20008;-80
2021/01/06 04:13:24;;;;;;;1.02;1.02;;;5.50;99.90;;;;;;6185108;23;20080;-80
2021/01/06 04:15:50;;;;;;;0.93;0.93;;;5.50;99.90;;;;;;6158887;23;20154;-80
2021/01/06 04:18:16;;;;;;;1.23;1.13;;;5.50;99.90;;;;;;6184979;23;20005;-80
2021/01/06 04:20:42;;;;;;;1.08;1.08;;;5.50;99.90;;;;;;6185294;23;20036;-80
2021/01/06 04:23:18;;;;;;;0.90;0.90;;;5.50;99.90;;;;;;6185174;23;20381;-80
2021/01/06 04:25:47;;;;;;;1.23;1.15;;;5.50;99.90;;;;;;6184907;23;20009;-78
2021/01/06 04:28:35;;;;;;;0.93;0.93;;;5.50;99.90;;;;;;6185033;23;20372;-78
2021/01/06 04:31:05;;;;;;;1.40;1.10;;;5.50;99.90;;;;;;6160159;23;20005;-78
2021/01/06 04:33:44;;;;;;;1.25;1.20;;;5.60;99.90;;;;;;6160726;23;20001;-78
2021/01/06 04:36:14;;;;;;;1.00;1.00;;;5.60;99.90;;;;;;6160636;23;20009;-78
2021/01/06 04:38:46;;;;;;;1.15;1.15;;;5.60;99.90;;;;;;6160588;23;20012;-78
2021/01/06 04:41:23;;;;;;;1.20;1.20;;;5.60;99.90;;;;;;6160588;23;20437;-78
2021/01/06 04:44:04;;;;;;;1.63;1.50;;;5.60;99.90;;;;;;6160550;23;20012;-77
2021/01/06 04:46:48;;;;;;;1.77;1.30;;;5.60;99.90;;;;;;6160291;23;20051;-78
2021/01/06 04:49:48;;;;;;;1.50;1.40;;;5.60;99.90;;;;;;6187012;23;20422;-77
2021/01/06 04:52:51;;;;;;;1.35;1.25;;;5.60;99.90;;;;;;6186903;23;20003;-78
2021/01/06 04:55:31;;;;;;;1.33;1.20;;;5.50;99.90;;;;;;6160239;23;20016;-77
2021/01/06 04:58:13;;;;;;;1.40;1.30;;;5.50;99.90;;;;;;6160203;23;20080;-77
2021/01/06 05:00:47;;;;;;;1.50;1.13;;;5.50;99.90;;;;;;6160306;23;20345;-78
2021/01/06 05:03:22;;;;;;;1.30;1.20;;;5.50;99.90;;;;;;6160487;23;20037;-78
2021/01/06 05:06:22;;;;;;;1.60;1.50;;;5.50;99.90;;;;;;6160375;23;20464;-78
2021/01/06 05:08:50;;;;;;;1.38;1.27;;;5.60;99.90;;;;;;6186827;23;20001;-77
2021/01/06 05:11:39;;;;;;;1.08;1.08;;;5.60;99.90;;;;;;6186795;23;20012;-78
2021/01/06 05:14:21;;;;;;;1.00;1.00;;;5.60;99.90;;;;;;6160379;23;20005;-77
2021/01/06 05:16:50;;;;;;;2.45;2.25;;;5.60;99.90;;;;;;6186340;23;20031;-78
2021/01/06 05:19:23;;;;;;;2.53;2.33;;;5.60;99.90;;;;;;6186774;23;20001;-78
2021/01/06 05:21:50;;;;;;;2.70;2.50;;;5.60;99.90;;;;;;6186841;23;20306;-78
2021/01/06 05:24:36;;;;;;;2.60;2.40;;;5.60;99.90;;;;;;6160391;23;20009;-77
2021/01/06 05:27:14;;;;;;;3.38;2.22;;;5.60;99.90;;;;;;6159754;23;20319;-78
2021/01/06 05:29:42;;;;;;;2.72;2.53;;;5.60;99.90;;;;;;6186587;23;20124;-78
2021/01/06 05:32:21;;;;;;;2.17;2.08;;;5.60;99.90;;;;;;6160253;23;20369;-78
2021/01/06 05:34:51;;;;;;;1.67;1.58;;;5.60;99.90;;;;;;6186719;23;20001;-77
2021/01/06 05:37:18;;;;;;;2.47;1.67;;;5.60;99.90;;;;;;6160190;23;20012;-78
2021/01/06 05:39:44;;;;;;;1.70;1.60;;;5.60;99.90;;;;;;6186625;23;20012;-78
2021/01/06 05:42:25;;;;;;;1.35;1.25;;;5.60;99.90;;;;;;6159519;23;20005;-78
2021/01/06 05:44:54;;;;;;;1.65;1.55;;;5.60;99.90;;;;;;6160163;23;20500;-78
2021/01/06 05:47:36;;;;;;;1.67;1.58;;;5.60;99.90;;;;;;6159996;23;20067;-77
2021/01/06 05:50:11;;;;;;;1.90;1.80;;;5.60;99.90;;;;;;6160069;23;20009;-78
2021/01/06 05:52:37;;;;;;;2.03;1.92;;;5.60;99.90;;;;;;6160076;23;20005;-77
2021/01/06 05:55:06;;;;;;;2.00;1.90;;;5.60;99.90;;;;;;6186314;23;20071;-78
2021/01/06 05:58:03;;;;;;;3.00;2.80;;;5.60;99.90;;;;;;6160005;23;20311;-78
2021/01/06 06:00:45;;;;;;;4.72;3.60;;;5.60;99.90;;;;;;6186427;23;20001;-78
2021/01/06 06:03:39;;;;;;;6.28;4.18;;;5.60;99.90;;;;;;6159882;23;20008;-77
2021/01/06 06:06:44;;;;;;;6.60;5.15;;;5.60;99.90;;;;;;6115079;23;20027;-77
2021/01/06 06:09:17;;;;;;;9.23;4.88;;;5.60;99.90;;;;;;6159882;23;20001;-77
2021/01/06 06:12:18;;;;;;;6.93;4.82;;;5.70;99.90;;;;;;6159968;23;20008;-77
2021/01/06 06:15:10;;;;;;;5.68;4.53;;;5.60;99.90;;;;;;6159908;23;20008;-78
2021/01/06 06:18:03;;;;;;;5.10;4.13;;;5.70;99.90;;;;;;6159566;23;20329;-77
2021/01/06 06:20:46;;;;;;;4.78;4.10;;;5.70;99.90;;;;;;6186207;23;20005;-78
2021/01/06 06:23:36;;;;;;;4.57;4.18;;;5.70;99.90;;;;;;6159785;23;19997;-77
2021/01/06 06:26:09;;;;;;;5.13;4.35;;;5.60;99.90;;;;;;6185935;23;20005;-77
2021/01/06 06:28:45;;;;;;;6.22;4.70;;;5.70;99.90;;;;;;6159582;23;20429;-77
2021/01/06 06:31:20;;;;;;;5.43;4.18;;;5.70;99.90;;;;;;6159626;23;20005;-78
2021/01/06 06:33:54;;;;;;;4.38;3.97;;;5.60;99.90;;;;;;6186007;23;19997;-78
2021/01/06 06:36:23;;;;;;;5.85;3.40;;;5.70;99.90;;;;;;6159496;23;20441;-78
2021/01/06 06:38:49;;;;;;;4.03;3.65;;;5.60;99.90;;;;;;6159002;23;20005;-78
2021/01/06 06:41:21;;;;;;;4.95;4.18;;;5.60;99.90;;;;;;6186057;23;20456;-78
2021/01/06 06:44:08;;;;;;;3.33;3.10;;;5.60;99.90;;;;;;6159599;23;20522;-78
2021/01/06 06:46:51;;;;;;;3.50;2.55;;;5.60;99.90;;;;;;6138847;23;20528;-78
2021/01/06 06:49:34;;;;;;;5.47;4.00;;;5.60;99.90;;;;;;6159323;23;20425;-78
2021/01/06 06:52:08;;;;;;;5.65;3.92;;;5.70;99.90;;;;;;6159323;23;20417;-78
2021/01/06 06:54:56;;;;;;;4.43;4.03;;;5.70;99.90;;;;;;6185659;23;20009;-78
2021/01/06 06:57:42;;;;;;;4.80;3.80;;;5.70;99.90;;;;;;6159130;23;20001;-77
2021/01/06 07:00:29;;;;;;;5.78;5.28;;;5.70;99.90;;;;;;6159409;23;20005;-78
2021/01/06 07:03:01;;;;;;;7.35;5.97;;;5.70;99.90;;;;;;6158978;23;20032;-78
2021/01/06 07:05:40;;;;;;;7.47;5.93;;;5.60;99.90;;;;;;6185255;23;20004;-78
2021/01/06 07:08:15;;;;;;;16.50;6.85;;;5.60;99.90;;;;;;6159351;23;20012;-78
2021/01/06 07:10:45;;;;;;;9.05;7.15;;;5.60;99.90;;;;;;6185620;23;19997;-78
2021/01/06 07:13:22;;;;;;;10.02;7.60;;;5.60;99.90;;;;;;6159359;23;20425;-78
2021/01/06 07:16:01;;;;;;;9.63;6.57;;;5.60;99.90;;;;;;6159111;23;20394;-78
2021/01/06 07:19:20;;;;;;;9.35;7.25;;;5.60;99.90;;;;;;6159160;23;20445;-78
2021/01/06 07:21:53;;;;;;;7.82;6.97;;;5.50;99.90;;;;;;6136084;23;20032;-81
2021/01/06 07:24:21;;;;;;;11.68;8.73;;;5.60;99.90;;;;;;6159258;23;20005;-78
2021/01/06 07:26:52;;;;;;;15.82;10.57;;;5.60;99.90;;;;;;6185218;23;20012;-78
2021/01/06 07:29:20;;;;;;;11.50;9.65;;;5.50;99.90;;;;;;6159166;23;20442;-78
2021/01/06 07:32:02;;;;;;;13.05;10.80;;;5.50;99.90;;;;;;6159222;23;20001;-78
2021/01/06 07:34:46;;;;;;;12.85;10.27;;;5.50;99.90;;;;;;6185518;23;19997;-77
2021/01/06 07:37:33;;;;;;;12.82;10.18;;;5.50;99.90;;;;;;6158861;23;20082;-78
2021/01/06 07:40:17;;;;;;;15.27;11.80;;;5.50;99.90;;;;;;6159056;23;20141;-78
2021/01/06 07:42:47;;;;;;;15.63;12.15;;;5.50;99.90;;;;;;6159109;23;20091;-78
2021/01/06 07:45:15;;;;;;;13.55;11.43;;;5.60;99.90;;;;;;6158878;23;20441;-78
2021/01/06 07:47:51;;;;;;;16.02;11.57;;;5.60;99.90;;;;;;6158663;23;20008;-78
2021/01/06 07:50:22;;;;;;;14.48;11.23;;;5.60;99.90;;;;;;6159035;23;20027;-78
2021/01/06 07:52:59;;;;;;;15.40;12.50;;;5.60;99.90;;;;;;6158826;23;20028;-78
2021/01/06 07:55:42;;;;;;;18.25;13.10;;;5.60;99.90;;;;;;6158648;23;20397;-78
2021/01/06 07:58:18;;;;;;;15.75;12.23;;;5.60;99.90;;;;;;6158785;23;20109;-77
2021/01/06 08:01:05;;;;;;;15.43;12.25;;;5.70;99.90;;;;;;6158869;23;20004;-78
2021/01/06 08:03:52;;;;;;;16.45;12.13;;;5.70;99.90;;;;;;6158841;23;20421;-78
2021/01/06 08:06:20;;;;;;;15.48;12.18;;;5.70;99.90;;;;;;6158774;23;20080;-78
2021/01/06 08:08:51;;;;;;;15.27;12.13;;;5.70;99.90;;;;;;6158777;23;20076;-78
2021/01/06 08:11:21;;;;;;;15.00;12.35;;;5.70;99.90;;;;;;6179561;23;20060;-78
2021/01/06 08:13:49;;;;;;;19.70;13.60;;;5.60;99.90;;;;;;6153656;23;20444;-78
2021/01/06 08:16:30;;;;;;;17.83;13.30;;;5.60;99.90;;;;;;6155107;23;20012;-78
2021/01/06 08:19:15;;;;;;;18.80;13.63;;;5.60;99.90;;;;;;6181099;23;20003;-78
2021/01/06 08:22:01;;;;;;;22.40;14.55;;;5.60;99.90;;;;;;6154860;23;20005;-78
2021/01/06 08:24:42;;;;;;;19.05;14.50;;;5.60;99.90;;;;;;6179505;23;20035;-78
2021/01/06 08:27:15;;;;;;;18.70;13.82;;;5.60;99.90;;;;;;6181546;23;20001;-78
2021/01/06 08:29:40;;;;;;;18.30;14.38;;;5.60;99.90;;;;;;6179731;23;20001;-78
2021/01/06 08:32:12;;;;;;;16.05;12.60;;;5.60;99.90;;;;;;6155484;23;20473;-78
2021/01/06 08:34:52;;;;;;;18.65;11.98;;;5.50;99.90;;;;;;6152524;23;20001;-78
2021/01/06 08:37:23;;;;;;;13.75;11.77;;;5.50;99.90;;;;;;6155368;23;20645;-78
2021/01/06 08:39:53;;;;;;;13.63;10.65;;;5.60;99.90;;;;;;6152590;23;20547;-78
2021/01/06 08:42:24;;;;;;;15.10;11.68;;;5.60;99.90;;;;;;6155006;23;20005;-77
2021/01/06 08:45:00;;;;;;;13.65;11.57;;;5.60;99.90;;;;;;6179312;23;20016;-78
2021/01/06 08:47:37;;;;;;;15.73;11.93;;;5.70;99.90;;;;;;6182256;23;20077;-77
2021/01/06 08:50:35;;;;;;;14.57;11.73;;;5.70;99.90;;;;;;6180278;23;20076;-78
2021/01/06 08:53:04;;;;;;;15.35;11.38;;;5.60;99.90;;;;;;6180220;23;20007;-77
2021/01/06 08:55:39;;;;;;;17.35;13.07;;;5.60;99.90;;;;;;6179548;23;20013;-78
2021/01/06 08:58:12;;;;;;;21.85;13.35;;;5.70;99.90;;;;;;6154435;23;20016;-77
2021/01/06 09:00:38;;;;;;;20.40;14.40;;;5.70;99.90;;;;;;6152029;23;20009;-77
2021/01/06 09:03:07;;;;;;;20.45;13.93;;;5.70;99.90;;;;;;6154473;23;20005;-78
2021/01/06 09:05:45;;;;;;;20.58;15.32;;;5.70;99.90;;;;;;6154100;23;20005;-78
2021/01/06 09:08:18;;;;;;;18.08;12.95;;;5.70;99.90;;;;;;6153305;23;20001;-78
2021/01/06 09:11:04;;;;;;;18.27;13.23;;;5.70;99.90;;;;;;6153860;23;20015;-78
2021/01/06 09:13:57;;;;;;;10.73;9.40;;;5.70;99.90;;;;;;6153573;23;20742;-78
2021/01/06 09:16:22;;;;;;;9.85;8.82;;;5.70;99.90;;;;;;6156536;23;20009;-78
2021/01/06 09:19:00;;;;;;;10.63;8.38;;;5.70;99.90;;;;;;6154906;23;20013;-78
2021/01/06 09:21:32;;;;;;;8.40;7.13;;;5.70;99.90;;;;;;6157123;23;20067;-78
2021/01/06 09:24:14;;;;;;;7.13;6.43;;;5.70;99.90;;;;;;6154424;23;20009;-77
2021/01/06 09:26:44;;;;;;;15.75;11.35;;;5.70;99.90;;;;;;6183396;23;20244;-77
2021/01/06 09:29:17;;;;;;;17.75;13.55;;;5.60;99.90;;;;;;6154665;23;20005;-77
2021/01/06 09:31:54;;;;;;;18.85;14.60;;;5.50;99.90;;;;;;6183305;23;20005;-77
2021/01/06 09:34:36;;;;;;;10.57;9.38;;;5.50;99.90;;;;;;6181735;23;20032;-77
2021/01/06 09:37:03;;;;;;;9.33;7.20;;;5.50;99.90;;;;;;6155963;23;20064;-77
2021/01/06 09:39:32;;;;;;;7.05;6.43;;;5.50;99.90;;;;;;6155534;23;20012;-77
2021/01/06 09:42:00;;;;;;;9.32;8.40;;;5.50;99.90;;;;;;6182839;23;20039;-80
2021/01/06 09:44:29;;;;;;;8.80;7.60;;;5.60;99.90;;;;;;6148398;23;20009;-78
2021/01/06 09:47:30;;;;;;;8.25;7.40;;;5.60;99.90;;;;;;6155033;23;20016;-79
2021/01/06 09:50:00;;;;;;;10.80;8.63;;;5.60;99.90;;;;;;6176825;23;20001;-78
2021/01/06 09:52:34;;;;;;;9.05;7.03;;;5.60;99.90;;;;;;6181585;23;20005;-77
2021/01/06 09:55:01;;;;;;;8.63;7.18;;;5.60;99.90;;;;;;6181886;23;20013;-77
2021/01/06 09:57:29;;;;;;;5.53;5.13;;;5.60;99.90;;;;;;6154946;23;20012;-81
2021/01/06 10:00:07;;;;;;;5.22;4.82;;;5.70;99.90;;;;;;6182154;23;20088;-81
2021/01/06 10:02:35;;;;;;;4.45;4.05;;;5.80;99.90;;;;;;6154241;23;20005;-81
2021/01/06 10:05:43;;;;;;;4.97;4.47;;;6.00;99.90;;;;;;6155290;23;20131;-82
2021/01/06 10:08:20;;;;;;;5.22;4.72;;;6.10;99.90;;;;;;6151126;23;20341;-81
2021/01/06 10:10:49;;;;;;;3.95;3.75;;;6.20;99.90;;;;;;6181813;23;20032;-82
2021/01/06 10:13:43;;;;;;;4.25;3.95;;;6.30;99.90;;;;;;6151950;23;20059;-81
2021/01/06 10:16:18;;;;;;;3.95;3.65;;;6.30;99.90;;;;;;6181151;23;20001;-77
2021/01/06 10:18:52;;;;;;;4.25;3.92;;;6.40;99.90;;;;;;6180853;23;20043;-76
2021/01/06 10:21:18;;;;;;;5.13;4.70;;;6.50;99.90;;;;;;6154628;23;20092;-77
2021/01/06 10:23:59;;;;;;;13.18;8.30;;;6.60;99.90;;;;;;6154051;23;20005;-76
2021/01/06 10:26:43;;;;;;;8.68;7.68;;;6.60;99.90;;;;;;6179917;23;20016;-81
2021/01/06 10:29:11;;;;;;;11.95;8.73;;;6.60;99.90;;;;;;6153246;23;20464;-81
2021/01/06 10:32:11;;;;;;;7.78;7.07;;;6.60;99.90;;;;;;6155211;23;20092;-82
2021/01/06 10:34:37;;;;;;;10.52;8.40;;;6.60;99.90;;;;;;6156538;23;20472;-82
2021/01/06 10:37:02;;;;;;;10.20;8.48;;;6.60;99.90;;;;;;6179770;23;20008;-82
2021/01/06 10:39:42;;;;;;;17.80;11.85;;;6.60;99.90;;;;;;6156359;23;20004;-81
2021/01/06 10:42:17;;;;;;;41.80;20.60;;;6.60;99.90;;;;;;6180955;23;20437;-82
2021/01/06 10:44:59;;;;;;;27.63;15.25;;;6.50;99.90;;;;;;6183344;23;20430;-84
2021/01/06 10:47:31;;;;;;;32.13;16.70;;;6.60;99.90;;;;;;6180566;23;20008;-82
2021/01/06 10:49:58;;;;;;;34.20;20.00;;;6.60;99.90;;;;;;6157113;23;20012;-82
2021/01/06 10:52:49;;;;;;;42.22;21.38;;;6.50;99.90;;;;;;6153672;23;20333;-84
2021/01/06 10:55:42;;;;;;;31.70;17.30;;;6.60;99.90;;;;;;6182236;23;20346;-83
2021/01/06 10:58:08;;;;;;;34.58;17.05;;;6.60;99.90;;;;;;6155087;23;20006;-83
2021/01/06 11:01:09;;;;;;;35.63;18.58;;;6.70;99.90;;;;;;6181367;23;20059;-83
2021/01/06 11:04:05;;;;;;;39.63;18.42;;;6.70;99.90;;;;;;6156235;23;20088;-83
2021/01/06 11:06:45;;;;;;;54.15;21.65;;;6.70;99.90;;;;;;6150922;23;20005;-82
2021/01/06 11:09:23;;;;;;;55.42;19.13;;;6.50;99.90;;;;;;6155661;23;20008;-82
2021/01/06 11:12:05;;;;;;;71.10;20.08;;;6.20;99.90;;;;;;6151756;23;20326;-83
2021/01/06 11:14:55;;;;;;;40.20;18.92;;;6.10;99.90;;;;;;6180894;23;20001;-82
2021/01/06 11:17:38;;;;;;;56.08;22.45;;;6.10;99.90;;;;;;6180113;23;20472;-84
2021/01/06 11:20:28;;;;;;;56.20;24.05;;;6.10;99.90;;;;;;6154676;23;20009;-84
2021/01/06 11:23:21;;;;;;;42.85;18.13;;;6.10;99.90;;;;;;6178952;23;20036;-83
2021/01/06 11:25:50;;;;;;;39.22;18.02;;;6.30;99.90;;;;;;6180405;23;20004;-83
2021/01/06 11:28:32;;;;;;;37.05;18.42;;;6.60;99.90;;;;;;6154572;23;20032;-81
2021/01/06 11:31:18;;;;;;;43.60;18.02;;;6.70;99.90;;;;;;6153639;23;20021;-83
2021/01/06 11:33:46;;;;;;;47.83;20.02;;;6.80;99.90;;;;;;6181149;23;20001;-83
2021/01/06 11:36:44;;;;;;;62.67;22.70;;;6.70;99.90;;;;;;6179101;23;20088;-83
2021/01/06 11:39:35;;;;;;;50.63;20.50;;;6.50;99.90;;;;;;6152463;23;20009;-80
2021/01/06 11:42:07;;;;;;;77.30;23.77;;;6.50;99.90;;;;;;6153470;23;20088;-81
2021/01/06 11:44:57;;;;;;;40.78;19.48;;;6.30;99.90;;;;;;6181498;23;20005;-84
2021/01/06 11:47:48;;;;;;;40.15;16.88;;;6.30;99.90;;;;;;6180984;23;20001;-79
2021/01/06 11:50:23;;;;;;;46.97;19.85;;;6.20;99.90;;;;;;6164274;23;20001;-80
2021/01/06 11:52:50;;;;;;;40.90;18.67;;;6.10;99.90;;;;;;6154725;23;20012;-80
2021/01/06 11:55:21;;;;;;;49.85;21.15;;;6.10;99.90;;;;;;6179792;23;20024;-80
2021/01/06 11:57:58;;;;;;;43.25;18.67;;;6.10;99.90;;;;;;6155302;23;20009;-82
2021/01/06 12:00:41;;;;;;;50.97;22.67;;;6.10;99.90;;;;;;6153790;23;20611;-82
2021/01/06 12:03:07;;;;;;;48.30;22.48;;;6.10;99.90;;;;;;6156402;23;20341;-80
2021/01/06 12:05:58;;;;;;;48.95;22.20;;;6.10;99.90;;;;;;6177759;23;20001;-81
2021/01/06 12:08:51;;;;;;;42.65;21.25;;;6.00;99.90;;;;;;6156117;23;20083;-82
2021/01/06 12:11:31;;;;;;;47.85;21.88;;;6.10;99.90;;;;;;6156950;23;20758;-82
2021/01/06 12:14:27;;;;;;;53.45;23.10;;;6.00;99.90;;;;;;6158492;23;20005;-84
2021/01/06 12:17:09;;;;;;;46.25;19.73;;;6.00;99.90;;;;;;6143116;23;20493;-84
2021/01/06 12:19:52;;;;;;;43.63;19.75;;;6.00;99.90;;;;;;6184927;23;20002;-84
2021/01/06 12:22:19;;;;;;;43.65;19.85;;;6.00;99.90;;;;;;6185164;23;20001;-84
2021/01/06 12:24:52;;;;;;;42.30;18.38;;;6.00;99.90;;;;;;6158508;23;20001;-84
2021/01/06 12:27:34;;;;;;;50.45;20.65;;;6.00;99.90;;;;;;6158622;23;20012;-84
2021/01/06 12:30:12;;;;;;;40.05;19.55;;;6.00;99.90;;;;;;6158759;23;20001;-84
2021/01/06 12:32:54;;;;;;;48.30;20.20;;;6.00;99.90;;;;;;6184901;23;20000;-84
2021/01/06 12:35:20;;;;;;;50.50;20.92;;;6.00;99.90;;;;;;6158514;23;20005;-84
2021/01/06 12:38:03;;;;;;;51.15;21.05;;;6.00;99.90;;;;;;6184784;23;20051;-84
2021/01/06 12:40:29;;;;;;;48.88;21.08;;;5.90;99.90;;;;;;6158596;23;20009;-84
2021/01/06 12:43:00;;;;;;;51.95;20.63;;;5.90;99.90;;;;;;6158556;23;20005;-84
2021/01/06 12:45:29;;;;;;;50.92;17.88;;;5.90;99.90;;;;;;6157721;23;20430;-84
2021/01/06 12:48:14;;;;;;;47.33;18.45;;;5.90;99.90;;;;;;6184309;23;20044;-84
2021/01/06 12:51:30;;;;;;;47.17;19.20;;;5.80;99.90;;;;;;6158749;23;20009;-84
2021/01/06 12:54:03;;;;;;;49.85;20.25;;;5.80;99.90;;;;;;6066688;23;20007;-84
2021/01/06 12:57:01;;;;;;;50.92;19.38;;;5.80;99.90;;;;;;6043096;23;20018;-84
2021/01/06 12:59:28;;;;;;;52.85;20.10;;;5.70;99.90;;;;;;6129105;23;20009;-84
2021/01/06 13:01:59;;;;;;;52.42;21.25;;;5.70;99.90;;;;;;6186438;23;20433;-85
2021/01/06 13:04:38;;;;;;;54.17;21.45;;;5.70;99.90;;;;;;6160634;23;20005;-85
2021/01/06 13:07:09;;;;;;;55.83;21.40;;;5.70;99.90;;;;;;6186601;23;20001;-85
2021/01/06 13:10:01;;;;;;;45.45;19.48;;;5.80;99.90;;;;;;6160432;23;20028;-85
2021/01/06 13:12:37;;;;;;;46.67;19.95;;;5.70;99.90;;;;;;6160371;23;20001;-80
2021/01/06 13:15:29;;;;;;;254.95;134.85;;;5.80;99.90;;;;;;6159749;23;20037;-80
2021/01/06 13:18:04;;;;;;;322.25;193.05;;;5.90;99.90;;;;;;6158274;23;20079;-80
2021/01/06 13:20:55;;;;;;;75.07;41.60;;;5.90;99.90;;;;;;6152738;23;20868;-80
2021/01/06 13:23:38;;;;;;;39.05;21.67;;;5.90;99.90;;;;;;6155691;23;20001;-80
2021/01/06 13:26:40;;;;;;;40.50;21.25;;;5.80;99.90;;;;;;6153455;23;20652;-80
2021/01/06 13:29:18;;;;;;;45.33;21.70;;;5.80;99.90;;;;;;6157256;23;20001;-79
2021/01/06 13:31:50;;;;;;;45.33;20.30;;;5.90;99.90;;;;;;6180868;23;20001;-79
2021/01/06 13:34:26;;;;;;;48.10;20.73;;;5.90;99.90;;;;;;6156968;23;20055;-80